createdAt,value
2018-03-28T00:00:10.604Z,0
2018-03-28T00:01:18.756Z,0
2018-03-28T00:02:26.760Z,0
2018-03-28T00:03:34.811Z,0
2018-03-28T00:04:42.861Z,0
2018-03-28T00:05:50.956Z,0
2018-03-28T00:06:58.977Z,0
2018-03-28T00:08:07.021Z,0
2018-03-28T00:09:15.164Z,0
2018-03-28T00:10:23.220Z,0
2018-03-28T00:11:31.208Z,0
2018-03-28T00:12:39.347Z,0
2018-03-28T00:13:47.316Z,0
2018-03-28T00:14:55.414Z,0
2018-03-28T00:16:03.477Z,0
2018-03-28T00:17:11.594Z,0
2018-03-28T00:18:19.564Z,0
2018-03-28T00:19:27.732Z,0
2018-03-28T00:20:35.688Z,0
2018-03-28T00:21:43.823Z,0
2018-03-28T00:22:51.825Z,0
2018-03-28T00:23:59.900Z,0
2018-03-28T00:25:08.007Z,0
2018-03-28T00:26:15.992Z,0
2018-03-28T00:27:24.122Z,0
2018-03-28T00:28:32.112Z,0
2018-03-28T00:29:40.169Z,0
2018-03-28T00:30:48.307Z,0
2018-03-28T00:31:56.354Z,0
2018-03-28T00:33:04.350Z,0
2018-03-28T00:34:12.454Z,0
2018-03-28T00:35:20.501Z,0
2018-03-28T00:36:28.634Z,0
2018-03-28T00:37:36.608Z,0
2018-03-28T00:38:44.654Z,0
2018-03-28T00:39:52.823Z,0
2018-03-28T00:41:00.771Z,0
2018-03-28T00:42:08.910Z,0
2018-03-28T00:43:16.903Z,0
2018-03-28T00:44:25.001Z,0
2018-03-28T00:45:33.082Z,0
2018-03-28T00:46:41.108Z,0
2018-03-28T00:47:49.201Z,0
2018-03-28T00:48:57.201Z,0
2018-03-28T00:50:05.253Z,0
2018-03-28T00:51:13.378Z,0
2018-03-28T00:52:21.405Z,0
2018-03-28T00:53:29.445Z,0
2018-03-28T00:54:37.587Z,0
2018-03-28T00:55:45.605Z,0
2018-03-28T00:56:53.621Z,0
2018-03-28T00:58:01.695Z,0
2018-03-28T00:59:09.780Z,0
2018-03-28T01:00:17.872Z,0
2018-03-28T01:01:25.891Z,0
2018-03-28T01:02:33.929Z,0
2018-03-28T01:03:42.027Z,0
2018-03-28T01:04:50.102Z,0
2018-03-28T01:05:58.098Z,0
2018-03-28T01:07:06.225Z,0
2018-03-28T01:08:14.244Z,0
2018-03-28T01:09:22.299Z,0
2018-03-28T01:10:30.415Z,0
2018-03-28T01:11:38.432Z,0
2018-03-28T01:12:46.453Z,0
2018-03-28T01:13:54.525Z,0
2018-03-28T01:15:02.594Z,0
2018-03-28T01:16:10.699Z,0
2018-03-28T01:17:18.736Z,0
2018-03-28T01:18:26.799Z,0
2018-03-28T01:19:34.821Z,0
2018-03-28T01:20:42.958Z,0
2018-03-28T01:21:50.959Z,0
2018-03-28T01:22:59.084Z,0
2018-03-28T01:24:07.083Z,0
2018-03-28T01:25:15.193Z,0
2018-03-28T01:26:23.217Z,0
2018-03-28T01:27:31.257Z,0
2018-03-28T01:28:39.370Z,0
2018-03-28T01:29:47.424Z,0
2018-03-28T01:30:55.476Z,0
2018-03-28T01:32:03.542Z,0
2018-03-28T01:33:11.553Z,0
2018-03-28T01:34:19.687Z,0
2018-03-28T01:35:27.718Z,0
2018-03-28T01:36:35.739Z,0
2018-03-28T01:37:43.826Z,0
2018-03-28T01:38:51.848Z,0
2018-03-28T01:40:00.000Z,0
2018-03-28T01:41:07.983Z,0
2018-03-28T01:42:16.081Z,0
2018-03-28T01:43:24.102Z,0
2018-03-28T01:44:32.160Z,0
2018-03-28T01:45:40.280Z,0
2018-03-28T01:46:48.278Z,0
2018-03-28T01:47:56.360Z,0
2018-03-28T01:49:04.403Z,0
2018-03-28T01:50:12.491Z,0
2018-03-28T01:51:20.533Z,0
2018-03-28T01:52:28.628Z,0
2018-03-28T01:53:36.744Z,0
2018-03-28T01:54:44.784Z,0
2018-03-28T01:55:52.770Z,0
2018-03-28T01:57:00.844Z,0
2018-03-28T01:58:08.916Z,0
2018-03-28T01:59:16.958Z,0
2018-03-28T02:00:25.050Z,0
2018-03-28T02:01:33.068Z,0
2018-03-28T02:02:41.205Z,0
2018-03-28T02:03:49.252Z,0
2018-03-28T02:04:57.273Z,0
2018-03-28T02:06:05.293Z,0
2018-03-28T02:07:13.362Z,0
2018-03-28T02:08:21.452Z,0
2018-03-28T02:09:29.548Z,0
2018-03-28T02:10:37.564Z,0
2018-03-28T02:11:45.675Z,0
2018-03-28T02:12:53.663Z,0
2018-03-28T02:14:01.725Z,0
2018-03-28T02:15:09.876Z,0
2018-03-28T02:16:17.849Z,0
2018-03-28T02:17:26.005Z,0
2018-03-28T02:18:33.981Z,0
2018-03-28T02:19:42.618Z,0
2018-03-28T02:20:50.151Z,0
2018-03-28T02:21:58.239Z,0
2018-03-28T02:23:06.285Z,0
2018-03-28T02:24:14.324Z,0
2018-03-28T02:25:22.351Z,0
2018-03-28T02:26:30.425Z,0
2018-03-28T02:27:38.502Z,0
2018-03-28T02:28:46.519Z,0
2018-03-28T02:29:54.670Z,0
2018-03-28T02:31:02.713Z,0
2018-03-28T02:32:10.688Z,0
2018-03-28T02:33:18.823Z,0
2018-03-28T02:34:26.840Z,0
2018-03-28T02:35:34.894Z,0
2018-03-28T02:36:42.966Z,0
2018-03-28T02:37:52.581Z,0
2018-03-28T02:39:00.579Z,0
2018-03-28T02:40:07.120Z,0
2018-03-28T02:41:15.241Z,0
2018-03-28T02:42:23.251Z,0
2018-03-28T02:43:31.302Z,0
2018-03-28T02:44:39.438Z,0
2018-03-28T02:45:47.457Z,0
2018-03-28T02:46:55.565Z,0
2018-03-28T02:48:03.602Z,0
2018-03-28T02:49:11.622Z,0
2018-03-28T02:50:19.658Z,0
2018-03-28T02:51:27.746Z,0
2018-03-28T02:52:35.838Z,0
2018-03-28T02:53:43.915Z,0
2018-03-28T02:54:51.921Z,0
2018-03-28T02:56:00.001Z,0
2018-03-28T02:57:08.062Z,0
2018-03-28T02:58:16.093Z,0
2018-03-28T02:59:24.240Z,0
2018-03-28T03:00:32.254Z,0
2018-03-28T03:01:40.293Z,0
2018-03-28T03:02:48.401Z,0
2018-03-28T03:03:56.447Z,0
2018-03-28T03:05:04.452Z,0
2018-03-28T03:06:12.553Z,0
2018-03-28T03:07:20.672Z,0
2018-03-28T03:08:28.689Z,0
2018-03-28T03:09:36.701Z,0
2018-03-28T03:10:44.755Z,0
2018-03-28T03:11:52.831Z,0
2018-03-28T03:13:00.937Z,0
2018-03-28T03:14:08.973Z,0
2018-03-28T03:15:17.004Z,0
2018-03-28T03:16:25.133Z,0
2018-03-28T03:17:33.121Z,0
2018-03-28T03:18:41.221Z,0
2018-03-28T03:19:49.314Z,0
2018-03-28T03:20:57.322Z,0
2018-03-28T03:22:05.369Z,0
2018-03-28T03:23:13.430Z,0
2018-03-28T03:24:21.521Z,0
2018-03-28T03:25:29.542Z,0
2018-03-28T03:26:37.683Z,0
2018-03-28T03:27:45.713Z,0
2018-03-28T03:28:53.726Z,0
2018-03-28T03:30:01.913Z,0
2018-03-28T03:31:09.840Z,0
2018-03-28T03:32:17.979Z,0
2018-03-28T03:33:25.967Z,0
2018-03-28T03:34:38.485Z,0
2018-03-28T03:35:46.484Z,0
2018-03-28T03:36:54.673Z,0
2018-03-28T03:38:02.550Z,0
2018-03-28T03:39:10.644Z,0
2018-03-28T03:40:18.677Z,0
2018-03-28T03:41:26.832Z,0
2018-03-28T03:42:34.821Z,0
2018-03-28T03:43:42.961Z,0
2018-03-28T03:44:51.087Z,0
2018-03-28T03:45:58.971Z,0
2018-03-28T03:47:07.109Z,0
2018-03-28T03:48:15.127Z,0
2018-03-28T03:49:23.192Z,0
2018-03-28T03:50:31.335Z,0
2018-03-28T03:51:39.279Z,0
2018-03-28T03:52:47.367Z,0
2018-03-28T03:53:55.483Z,0
2018-03-28T03:55:03.464Z,0
2018-03-28T03:56:11.603Z,0
2018-03-28T03:57:19.612Z,0
2018-03-28T03:58:27.637Z,0
2018-03-28T03:59:35.751Z,0
2018-03-28T04:00:43.818Z,0
2018-03-28T04:01:51.883Z,0
2018-03-28T04:02:59.897Z,0
2018-03-28T04:04:08.040Z,0
2018-03-28T04:05:16.035Z,0
2018-03-28T04:06:24.151Z,0
2018-03-28T04:07:32.129Z,0
2018-03-28T04:08:40.232Z,0
2018-03-28T04:09:48.252Z,0
2018-03-28T04:10:56.421Z,0
2018-03-28T04:12:04.396Z,0
2018-03-28T04:13:12.456Z,0
2018-03-28T04:14:20.544Z,0
2018-03-28T04:15:28.580Z,0
2018-03-28T04:16:36.652Z,0
2018-03-28T04:17:44.735Z,0
2018-03-28T04:18:52.782Z,0
2018-03-28T04:20:00.872Z,0
2018-03-28T04:21:08.862Z,0
2018-03-28T04:22:17.000Z,0
2018-03-28T04:23:25.022Z,0
2018-03-28T04:24:33.056Z,0
2018-03-28T04:25:41.112Z,0
2018-03-28T04:26:49.277Z,0
2018-03-28T04:27:57.230Z,0
2018-03-28T04:29:05.362Z,0
2018-03-28T04:30:13.351Z,0
2018-03-28T04:31:21.997Z,0
2018-03-28T04:32:29.555Z,0
2018-03-28T04:33:37.545Z,0
2018-03-28T04:34:45.645Z,0
2018-03-28T04:35:53.697Z,0
2018-03-28T04:37:01.739Z,0
2018-03-28T04:38:09.773Z,0
2018-03-28T04:39:17.886Z,0
2018-03-28T04:40:25.935Z,0
2018-03-28T04:41:33.984Z,0
2018-03-28T04:42:42.038Z,0
2018-03-28T04:43:50.131Z,0
2018-03-28T04:44:58.153Z,0
2018-03-28T04:46:06.230Z,0
2018-03-28T04:47:14.272Z,0
2018-03-28T04:48:22.412Z,0
2018-03-28T04:49:30.387Z,0
2018-03-28T04:50:39.020Z,0
2018-03-28T04:51:46.554Z,0
2018-03-28T04:52:54.668Z,0
2018-03-28T04:54:02.660Z,0
2018-03-28T04:55:10.941Z,0
2018-03-28T04:56:18.805Z,0
2018-03-28T04:57:26.819Z,0
2018-03-28T04:58:34.944Z,0
2018-03-28T04:59:42.957Z,0
2018-03-28T05:00:51.076Z,0
2018-03-28T05:01:59.208Z,0
2018-03-28T05:03:07.128Z,0
2018-03-28T05:04:15.319Z,0
2018-03-28T05:05:23.249Z,0
2018-03-28T05:06:31.823Z,0
2018-03-28T05:07:39.360Z,0
2018-03-28T05:08:47.486Z,0
2018-03-28T05:09:55.496Z,0
2018-03-28T05:11:03.586Z,0
2018-03-28T05:12:11.688Z,0
2018-03-28T05:13:19.784Z,0
2018-03-28T05:14:30.042Z,5
2018-03-28T05:15:35.888Z,5
2018-03-28T05:16:43.931Z,5
2018-03-28T05:17:52.551Z,5
2018-03-28T05:18:59.983Z,5
2018-03-28T05:20:08.106Z,5
2018-03-28T05:21:16.119Z,5
2018-03-28T05:22:24.162Z,5
2018-03-28T05:23:32.336Z,10
2018-03-28T05:24:40.341Z,10
2018-03-28T05:25:48.445Z,10
2018-03-28T05:26:56.459Z,10
2018-03-28T05:28:04.517Z,10
2018-03-28T05:29:12.546Z,15
2018-03-28T05:30:20.634Z,15
2018-03-28T05:31:28.748Z,15
2018-03-28T05:32:36.758Z,15
2018-03-28T05:33:44.793Z,20
2018-03-28T05:34:52.845Z,20
2018-03-28T05:36:00.926Z,20
2018-03-28T05:37:09.002Z,25
2018-03-28T05:38:17.027Z,25
2018-03-28T05:39:25.184Z,30
2018-03-28T05:40:33.186Z,30
2018-03-28T05:41:41.284Z,35
2018-03-28T05:42:49.369Z,50
2018-03-28T05:43:57.332Z,50
2018-03-28T05:45:05.410Z,55
2018-03-28T05:46:13.469Z,55
2018-03-28T05:47:21.568Z,70
2018-03-28T05:48:29.663Z,70
2018-03-28T05:49:37.639Z,65
2018-03-28T05:50:45.739Z,60
2018-03-28T05:51:53.771Z,60
2018-03-28T05:53:01.860Z,70
2018-03-28T05:54:09.957Z,75
2018-03-28T05:55:17.960Z,70
2018-03-28T05:56:26.101Z,60
2018-03-28T05:57:34.120Z,70
2018-03-28T05:58:42.168Z,70
2018-03-28T05:59:50.213Z,70
2018-03-28T06:00:58.274Z,70
2018-03-28T06:02:06.330Z,70
2018-03-28T06:03:14.479Z,75
2018-03-28T06:04:22.458Z,75
2018-03-28T06:05:30.602Z,80
2018-03-28T06:06:38.598Z,70
2018-03-28T06:07:46.640Z,80
2018-03-28T06:08:54.740Z,70
2018-03-28T06:10:03.325Z,65
2018-03-28T06:11:10.904Z,60
2018-03-28T06:12:18.906Z,55
2018-03-28T06:13:27.032Z,60
2018-03-28T06:14:35.009Z,60
2018-03-28T06:15:43.151Z,65
2018-03-28T06:16:51.152Z,75
2018-03-28T06:17:59.191Z,75
2018-03-28T06:19:07.340Z,70
2018-03-28T06:20:15.332Z,70
2018-03-28T06:21:23.427Z,75
2018-03-28T06:22:31.446Z,80
2018-03-28T06:23:39.581Z,85
2018-03-28T06:24:47.624Z,115
2018-03-28T06:25:55.654Z,120
2018-03-28T06:27:03.767Z,140
2018-03-28T06:28:11.838Z,160
2018-03-28T06:29:19.816Z,155
2018-03-28T06:30:27.874Z,155
2018-03-28T06:31:35.989Z,165
2018-03-28T06:32:43.998Z,170
2018-03-28T06:33:52.142Z,180
2018-03-28T06:35:00.138Z,205
2018-03-28T06:36:08.281Z,190
2018-03-28T06:37:16.313Z,180
2018-03-28T06:38:24.357Z,155
2018-03-28T06:39:32.376Z,155
2018-03-28T06:40:40.457Z,170
2018-03-28T06:41:48.577Z,170
2018-03-28T06:42:56.573Z,185
2018-03-28T06:44:04.640Z,190
2018-03-28T06:45:12.787Z,190
2018-03-28T06:46:20.776Z,195
2018-03-28T06:47:28.820Z,185
2018-03-28T06:48:36.873Z,205
2018-03-28T06:49:45.033Z,210
2018-03-28T06:50:53.055Z,225
2018-03-28T06:52:01.159Z,235
2018-03-28T06:53:09.219Z,235
2018-03-28T06:54:17.214Z,225
2018-03-28T06:55:25.265Z,255
2018-03-28T06:56:33.378Z,225
2018-03-28T06:57:41.409Z,260
2018-03-28T06:58:49.463Z,280
2018-03-28T06:59:57.506Z,300
2018-03-28T07:01:05.620Z,305
2018-03-28T07:02:13.634Z,310
2018-03-28T07:03:21.796Z,310
2018-03-28T07:04:29.831Z,285
2018-03-28T07:05:37.824Z,290
2018-03-28T07:06:45.956Z,295
2018-03-28T07:07:54.028Z,300
2018-03-28T07:09:02.047Z,300
2018-03-28T07:10:10.159Z,300
2018-03-28T07:11:18.195Z,295
2018-03-28T07:12:26.227Z,300
2018-03-28T07:13:34.278Z,305
2018-03-28T07:14:42.408Z,310
2018-03-28T07:15:50.476Z,335
2018-03-28T07:16:58.480Z,340
2018-03-28T07:18:06.579Z,345
2018-03-28T07:19:14.592Z,340
2018-03-28T07:20:22.719Z,335
2018-03-28T07:21:30.799Z,330
2018-03-28T07:22:38.788Z,330
2018-03-28T07:23:46.849Z,335
2018-03-28T07:24:55.021Z,335
2018-03-28T07:26:03.018Z,340
2018-03-28T07:27:11.077Z,320
2018-03-28T07:28:19.183Z,300
2018-03-28T07:29:27.219Z,295
2018-03-28T07:30:35.367Z,300
2018-03-28T07:31:43.322Z,320
2018-03-28T07:32:51.382Z,315
2018-03-28T07:33:59.513Z,305
2018-03-28T07:35:07.514Z,290
2018-03-28T07:36:15.665Z,290
2018-03-28T07:37:23.676Z,285
2018-03-28T07:38:31.848Z,270
2018-03-28T07:39:39.777Z,285
2018-03-28T07:40:47.906Z,300
2018-03-28T07:41:55.951Z,290
2018-03-28T07:43:03.956Z,280
2018-03-28T07:44:12.071Z,245
2018-03-28T07:45:20.137Z,265
2018-03-28T07:46:28.176Z,270
2018-03-28T07:47:36.242Z,335
2018-03-28T07:48:44.333Z,250
2018-03-28T07:49:52.484Z,295
2018-03-28T07:51:00.443Z,310
2018-03-28T07:52:08.573Z,240
2018-03-28T07:53:16.618Z,215
2018-03-28T07:54:24.662Z,230
2018-03-28T07:55:32.711Z,280
2018-03-28T07:56:40.943Z,250
2018-03-28T07:57:48.905Z,280
2018-03-28T07:58:56.886Z,235
2018-03-28T08:00:04.965Z,300
2018-03-28T08:01:13.060Z,340
2018-03-28T08:02:21.062Z,340
2018-03-28T08:03:29.153Z,340
2018-03-28T08:04:37.225Z,380
2018-03-28T08:05:45.286Z,390
2018-03-28T08:06:53.514Z,420
2018-03-28T08:08:01.381Z,450
2018-03-28T08:09:09.523Z,380
2018-03-28T08:10:17.515Z,375
2018-03-28T08:11:25.656Z,355
2018-03-28T08:12:33.640Z,360
2018-03-28T08:13:41.705Z,385
2018-03-28T08:14:49.816Z,355
2018-03-28T08:15:57.870Z,335
2018-03-28T08:17:05.899Z,395
2018-03-28T08:18:14.061Z,380
2018-03-28T08:19:22.087Z,360
2018-03-28T08:20:30.101Z,365
2018-03-28T08:21:38.180Z,255
2018-03-28T08:22:46.230Z,255
2018-03-28T08:23:54.357Z,345
2018-03-28T08:25:02.368Z,360
2018-03-28T08:26:10.516Z,285
2018-03-28T08:27:18.507Z,320
2018-03-28T08:28:26.595Z,305
2018-03-28T08:29:34.637Z,265
2018-03-28T08:30:42.768Z,220
2018-03-28T08:31:50.806Z,285
2018-03-28T08:32:58.856Z,325
2018-03-28T08:34:06.888Z,315
2018-03-28T08:35:15.047Z,330
2018-03-28T08:36:23.093Z,285
2018-03-28T08:37:31.074Z,295
2018-03-28T08:38:39.193Z,290
2018-03-28T08:39:47.263Z,225
2018-03-28T08:40:55.339Z,230
2018-03-28T08:42:03.378Z,265
2018-03-28T08:43:13.949Z,210
2018-03-28T08:44:19.471Z,275
2018-03-28T08:45:27.593Z,280
2018-03-28T08:46:35.616Z,290
2018-03-28T08:47:43.711Z,260
2018-03-28T08:48:51.739Z,300
2018-03-28T08:49:59.860Z,295
2018-03-28T08:51:07.930Z,200
2018-03-28T08:52:15.989Z,200
2018-03-28T08:53:23.995Z,200
2018-03-28T08:54:32.123Z,210
2018-03-28T08:55:40.174Z,225
2018-03-28T08:56:48.195Z,170
2018-03-28T08:57:56.358Z,225
2018-03-28T08:59:04.341Z,200
2018-03-28T09:00:12.451Z,155
2018-03-28T09:01:20.535Z,215
2018-03-28T09:02:28.549Z,175
2018-03-28T09:03:36.582Z,170
2018-03-28T09:04:44.730Z,190
2018-03-28T09:05:52.806Z,180
2018-03-28T09:07:00.776Z,160
2018-03-28T09:08:08.855Z,150
2018-03-28T09:09:16.975Z,135
2018-03-28T09:10:24.990Z,160
2018-03-28T09:11:33.059Z,140
2018-03-28T09:12:41.207Z,130
2018-03-28T09:13:49.172Z,140
2018-03-28T09:14:57.336Z,140
2018-03-28T09:16:05.345Z,180
2018-03-28T09:17:13.407Z,160
2018-03-28T09:18:21.486Z,170
2018-03-28T09:19:29.514Z,180
2018-03-28T09:20:37.625Z,185
2018-03-28T09:21:45.690Z,185
2018-03-28T09:22:53.820Z,205
2018-03-28T09:24:01.828Z,195
2018-03-28T09:25:09.977Z,175
2018-03-28T09:26:17.991Z,180
2018-03-28T09:27:26.020Z,190
2018-03-28T09:28:34.234Z,155
2018-03-28T09:29:42.155Z,205
2018-03-28T09:30:50.291Z,200
2018-03-28T09:31:58.320Z,285
2018-03-28T09:33:06.346Z,285
2018-03-28T09:34:14.402Z,250
2018-03-28T09:35:22.468Z,300
2018-03-28T09:36:30.532Z,345
2018-03-28T09:37:38.633Z,305
2018-03-28T09:38:46.673Z,500
2018-03-28T09:39:54.717Z,355
2018-03-28T09:41:02.887Z,540
2018-03-28T09:42:10.861Z,385
2018-03-28T09:43:18.928Z,425
2018-03-28T09:44:27.032Z,410
2018-03-28T09:45:35.042Z,400
2018-03-28T09:46:43.142Z,250
2018-03-28T09:47:51.273Z,275
2018-03-28T09:48:59.252Z,350
2018-03-28T09:50:07.369Z,370
2018-03-28T09:51:15.464Z,335
2018-03-28T09:52:23.434Z,315
2018-03-28T09:53:31.566Z,420
2018-03-28T09:54:39.633Z,395
2018-03-28T09:55:47.637Z,315
2018-03-28T09:56:55.783Z,495
2018-03-28T09:58:03.768Z,545
2018-03-28T09:59:11.836Z,475
2018-03-28T10:00:19.981Z,395
2018-03-28T10:01:27.967Z,565
2018-03-28T10:02:36.028Z,390
2018-03-28T10:03:44.152Z,500
2018-03-28T10:04:52.178Z,475
2018-03-28T10:06:00.256Z,495
2018-03-28T10:07:08.342Z,430
2018-03-28T10:08:16.397Z,490
2018-03-28T10:09:24.444Z,350
2018-03-28T10:10:32.524Z,440
2018-03-28T10:11:40.585Z,390
2018-03-28T10:12:48.670Z,315
2018-03-28T10:13:56.722Z,450
2018-03-28T10:15:04.859Z,535
2018-03-28T10:16:12.848Z,430
2018-03-28T10:17:20.885Z,465
2018-03-28T10:18:28.962Z,400
2018-03-28T10:19:37.091Z,395
2018-03-28T10:20:45.120Z,480
2018-03-28T10:21:53.146Z,545
2018-03-28T10:23:01.259Z,435
2018-03-28T10:24:09.342Z,450
2018-03-28T10:25:17.437Z,435
2018-03-28T10:26:25.425Z,485
2018-03-28T10:27:33.529Z,595
2018-03-28T10:28:41.549Z,720
2018-03-28T10:29:49.697Z,660
2018-03-28T10:30:57.731Z,580
2018-03-28T10:32:05.751Z,660
2018-03-28T10:33:13.873Z,580
2018-03-28T10:34:21.926Z,580
2018-03-28T10:35:30.013Z,500
2018-03-28T10:36:38.016Z,505
2018-03-28T10:37:46.082Z,485
2018-03-28T10:38:54.257Z,580
2018-03-28T10:40:02.241Z,600
2018-03-28T10:41:10.284Z,470
2018-03-28T10:42:18.393Z,590
2018-03-28T10:43:26.414Z,475
2018-03-28T10:44:34.556Z,540
2018-03-28T10:45:42.576Z,645
2018-03-28T10:46:50.616Z,560
2018-03-28T10:47:58.750Z,480
2018-03-28T10:49:06.789Z,450
2018-03-28T10:50:14.820Z,545
2018-03-28T10:51:22.919Z,485
2018-03-28T10:52:30.974Z,480
2018-03-28T10:53:39.029Z,390
2018-03-28T10:54:47.193Z,330
2018-03-28T10:55:55.159Z,465
2018-03-28T10:57:03.302Z,440
2018-03-28T10:58:11.338Z,325
2018-03-28T10:59:19.372Z,510
2018-03-28T11:00:27.495Z,415
2018-03-28T11:01:35.490Z,365
2018-03-28T11:02:43.617Z,365
2018-03-28T11:03:51.635Z,395
2018-03-28T11:04:59.763Z,460
2018-03-28T11:06:07.772Z,365
2018-03-28T11:07:22.384Z,400
2018-03-28T11:08:23.939Z,465
2018-03-28T11:09:32.004Z,595
2018-03-28T11:10:40.114Z,510
2018-03-28T11:11:48.159Z,535
2018-03-28T11:12:56.438Z,460
2018-03-28T11:14:04.297Z,320
2018-03-28T11:15:12.347Z,280
2018-03-28T11:16:20.386Z,310
2018-03-28T11:17:29.463Z,300
2018-03-28T11:18:36.564Z,335
2018-03-28T11:19:44.616Z,305
2018-03-28T11:20:52.870Z,255
2018-03-28T11:22:00.729Z,330
2018-03-28T11:23:08.878Z,305
2018-03-28T11:24:16.904Z,285
2018-03-28T11:25:24.908Z,370
2018-03-28T11:26:32.983Z,390
2018-03-28T11:27:41.126Z,430
2018-03-28T11:28:49.118Z,360
2018-03-28T11:29:57.184Z,340
2018-03-28T11:31:05.320Z,330
2018-03-28T11:32:13.315Z,310
2018-03-28T11:33:21.432Z,315
2018-03-28T11:34:29.488Z,380
2018-03-28T11:35:37.540Z,380
2018-03-28T11:36:45.585Z,285
2018-03-28T11:37:53.692Z,350
2018-03-28T11:39:01.754Z,425
2018-03-28T11:40:09.779Z,350
2018-03-28T11:41:17.883Z,340
2018-03-28T11:42:25.909Z,480
2018-03-28T11:43:34.103Z,485
2018-03-28T11:44:42.089Z,415
2018-03-28T11:45:50.106Z,360
2018-03-28T11:46:58.262Z,335
2018-03-28T11:48:06.271Z,340
2018-03-28T11:49:14.355Z,340
2018-03-28T11:50:22.434Z,395
2018-03-28T11:51:30.442Z,345
2018-03-28T11:52:38.554Z,330
2018-03-28T11:53:46.633Z,300
2018-03-28T11:54:54.718Z,225
2018-03-28T11:56:02.729Z,360
2018-03-28T11:57:10.851Z,310
2018-03-28T11:58:18.851Z,310
2018-03-28T11:59:26.912Z,430
2018-03-28T12:00:35.068Z,590
2018-03-28T12:01:43.126Z,485
2018-03-28T12:02:51.189Z,415
2018-03-28T12:03:59.171Z,320
2018-03-28T12:05:07.240Z,305
2018-03-28T12:06:15.358Z,455
2018-03-28T12:07:23.413Z,350
2018-03-28T12:08:31.453Z,320
2018-03-28T12:09:39.571Z,315
2018-03-28T12:10:47.604Z,360
2018-03-28T12:11:55.708Z,315
2018-03-28T12:13:03.789Z,290
2018-03-28T12:14:11.832Z,275
2018-03-28T12:15:19.861Z,255
2018-03-28T12:16:27.979Z,415
2018-03-28T12:17:36.002Z,320
2018-03-28T12:18:44.054Z,320
2018-03-28T12:19:52.232Z,350
2018-03-28T12:21:00.268Z,360
2018-03-28T12:22:08.245Z,260
2018-03-28T12:23:16.329Z,280
2018-03-28T12:24:24.451Z,235
2018-03-28T12:25:32.490Z,290
2018-03-28T12:26:40.641Z,390
2018-03-28T12:27:48.634Z,295
2018-03-28T12:28:56.663Z,220
2018-03-28T12:30:04.768Z,335
2018-03-28T12:31:12.832Z,270
2018-03-28T12:32:20.947Z,330
2018-03-28T12:33:28.959Z,385
2018-03-28T12:34:36.998Z,260
2018-03-28T12:35:45.098Z,280
2018-03-28T12:36:53.142Z,405
2018-03-28T12:38:01.238Z,430
2018-03-28T12:39:09.308Z,405
2018-03-28T12:40:17.322Z,275
2018-03-28T12:41:25.375Z,395
2018-03-28T12:42:33.600Z,315
2018-03-28T12:43:41.524Z,390
2018-03-28T12:44:49.617Z,405
2018-03-28T12:45:57.693Z,340
2018-03-28T12:47:05.727Z,305
2018-03-28T12:48:13.781Z,335
2018-03-28T12:49:21.845Z,215
2018-03-28T12:50:30.001Z,335
2018-03-28T12:51:38.031Z,350
2018-03-28T12:52:46.093Z,200
2018-03-28T12:54:00.654Z,305
2018-03-28T12:55:02.290Z,265
2018-03-28T12:56:10.278Z,280
2018-03-28T12:57:18.330Z,255
2018-03-28T12:58:26.411Z,195
2018-03-28T12:59:34.442Z,140
2018-03-28T13:00:42.563Z,120
2018-03-28T13:01:50.647Z,195
2018-03-28T13:02:58.700Z,215
2018-03-28T13:04:06.717Z,155
2018-03-28T13:05:14.934Z,180
2018-03-28T13:06:22.876Z,295
2018-03-28T13:07:30.913Z,270
2018-03-28T13:08:38.994Z,170
2018-03-28T13:09:47.046Z,195
2018-03-28T13:10:55.117Z,130
2018-03-28T13:12:03.236Z,325
2018-03-28T13:13:11.250Z,220
2018-03-28T13:14:19.329Z,215
2018-03-28T13:15:27.426Z,245
2018-03-28T13:16:35.444Z,365
2018-03-28T13:17:43.507Z,360
2018-03-28T13:18:51.630Z,380
2018-03-28T13:19:59.707Z,355
2018-03-28T13:21:07.710Z,225
2018-03-28T13:22:15.862Z,280
2018-03-28T13:23:23.881Z,210
2018-03-28T13:24:31.921Z,260
2018-03-28T13:25:41.529Z,285
2018-03-28T13:26:48.094Z,330
2018-03-28T13:27:56.122Z,285
2018-03-28T13:29:04.184Z,310
2018-03-28T13:30:12.346Z,390
2018-03-28T13:31:20.321Z,420
2018-03-28T13:32:28.390Z,430
2018-03-28T13:33:36.458Z,440
2018-03-28T13:34:44.565Z,455
2018-03-28T13:35:52.743Z,470
2018-03-28T13:37:00.712Z,445
2018-03-28T13:38:08.788Z,440
2018-03-28T13:39:16.770Z,420
2018-03-28T13:40:24.894Z,300
2018-03-28T13:41:32.906Z,300
2018-03-28T13:42:41.057Z,300
2018-03-28T13:43:49.048Z,355
2018-03-28T13:44:58.223Z,295
2018-03-28T13:46:05.246Z,275
2018-03-28T13:47:13.276Z,325
2018-03-28T13:48:21.405Z,410
2018-03-28T13:49:29.437Z,415
2018-03-28T13:50:37.426Z,365
2018-03-28T13:51:45.575Z,355
2018-03-28T13:52:53.645Z,435
2018-03-28T13:54:01.637Z,385
2018-03-28T13:55:09.741Z,350
2018-03-28T13:56:17.770Z,255
2018-03-28T13:57:25.909Z,325
2018-03-28T13:58:33.955Z,280
2018-03-28T13:59:42.022Z,255
2018-03-28T14:00:50.139Z,325
2018-03-28T14:01:58.144Z,170
2018-03-28T14:03:06.166Z,270
2018-03-28T14:04:14.292Z,230
2018-03-28T14:05:22.324Z,140
2018-03-28T14:06:30.408Z,190
2018-03-28T14:07:38.472Z,185
2018-03-28T14:08:46.524Z,180
2018-03-28T14:09:54.620Z,130
2018-03-28T14:11:02.764Z,145
2018-03-28T14:12:10.746Z,185
2018-03-28T14:13:18.830Z,175
2018-03-28T14:14:26.857Z,180
2018-03-28T14:15:34.987Z,175
2018-03-28T14:16:43.048Z,185
2018-03-28T14:17:51.026Z,155
2018-03-28T14:18:59.187Z,200
2018-03-28T14:20:07.200Z,175
2018-03-28T14:21:15.372Z,135
2018-03-28T14:22:23.462Z,200
2018-03-28T14:23:31.383Z,275
2018-03-28T14:24:39.422Z,240
2018-03-28T14:25:47.538Z,170
2018-03-28T14:26:55.612Z,255
2018-03-28T14:28:03.641Z,210
2018-03-28T14:29:11.682Z,110
2018-03-28T14:30:19.813Z,175
2018-03-28T14:31:27.822Z,125
2018-03-28T14:32:35.924Z,105
2018-03-28T14:33:44.005Z,110
2018-03-28T14:34:52.045Z,55
2018-03-28T14:36:00.180Z,75
2018-03-28T14:37:08.195Z,175
2018-03-28T14:38:16.302Z,140
2018-03-28T14:39:24.314Z,200
2018-03-28T14:40:32.356Z,185
2018-03-28T14:41:40.465Z,170
2018-03-28T14:42:54.583Z,265
2018-03-28T14:43:56.604Z,250
2018-03-28T14:45:04.633Z,205
2018-03-28T14:46:12.770Z,200
2018-03-28T14:47:20.762Z,175
2018-03-28T14:48:28.896Z,285
2018-03-28T14:49:36.877Z,285
2018-03-28T14:50:44.935Z,295
2018-03-28T14:51:53.103Z,305
2018-03-28T14:53:01.126Z,260
2018-03-28T14:54:09.159Z,250
2018-03-28T14:55:17.224Z,240
2018-03-28T14:56:25.295Z,255
2018-03-28T14:57:33.403Z,250
2018-03-28T14:58:41.400Z,265
2018-03-28T14:59:49.517Z,295
2018-03-28T15:00:57.513Z,265
2018-03-28T15:02:05.606Z,305
2018-03-28T15:03:13.687Z,295
2018-03-28T15:04:21.732Z,275
2018-03-28T15:05:29.872Z,295
2018-03-28T15:06:37.900Z,290
2018-03-28T15:07:45.920Z,265
2018-03-28T15:08:54.023Z,210
2018-03-28T15:10:02.053Z,215
2018-03-28T15:11:10.201Z,275
2018-03-28T15:12:18.279Z,235
2018-03-28T15:13:26.253Z,220
2018-03-28T15:14:34.388Z,230
2018-03-28T15:15:42.379Z,245
2018-03-28T15:16:50.464Z,200
2018-03-28T15:17:58.586Z,170
2018-03-28T15:19:06.641Z,150
2018-03-28T15:20:14.699Z,165
2018-03-28T15:21:22.701Z,170
2018-03-28T15:22:30.862Z,120
2018-03-28T15:23:38.845Z,150
2018-03-28T15:24:46.900Z,130
2018-03-28T15:25:55.046Z,155
2018-03-28T15:27:03.074Z,150
2018-03-28T15:28:11.148Z,135
2018-03-28T15:29:19.158Z,160
2018-03-28T15:30:27.270Z,150
2018-03-28T15:31:35.298Z,165
2018-03-28T15:32:43.482Z,145
2018-03-28T15:33:51.432Z,155
2018-03-28T15:34:59.530Z,125
2018-03-28T15:36:07.632Z,160
2018-03-28T15:37:15.648Z,120
2018-03-28T15:38:23.726Z,125
2018-03-28T15:39:31.760Z,135
2018-03-28T15:40:39.911Z,130
2018-03-28T15:41:47.936Z,115
2018-03-28T15:42:55.973Z,125
2018-03-28T15:44:04.015Z,110
2018-03-28T15:45:12.179Z,120
2018-03-28T15:46:20.172Z,90
2018-03-28T15:47:28.190Z,95
2018-03-28T15:48:36.327Z,80
2018-03-28T15:49:44.328Z,90
2018-03-28T15:50:52.393Z,80
2018-03-28T15:52:00.479Z,105
2018-03-28T15:53:08.560Z,90
2018-03-28T15:54:16.585Z,80
2018-03-28T15:55:24.733Z,95
2018-03-28T15:56:35.297Z,80
2018-03-28T15:57:40.779Z,70
2018-03-28T15:58:48.854Z,75
2018-03-28T15:59:56.949Z,45
2018-03-28T16:01:04.994Z,55
2018-03-28T16:02:13.378Z,80